createdAt,value
2022-11-28T00:00:08.735Z,18.98
2022-11-28T00:02:58.568Z,18.70
2022-11-28T00:05:47.053Z,17.65
2022-11-28T00:08:36.434Z,19.80
2022-11-28T00:11:24.793Z,19.35
2022-11-28T00:14:13.692Z,22.05
2022-11-28T00:17:01.991Z,25.63
2022-11-28T00:19:51.872Z,18.00
2022-11-28T00:22:40.151Z,19.27
2022-11-28T00:25:28.466Z,21.85
2022-11-28T00:28:16.770Z,21.35
2022-11-28T00:31:05.277Z,17.02
2022-11-28T00:33:53.964Z,18.48
2022-11-28T00:36:44.411Z,19.08
2022-11-28T00:39:32.696Z,19.92
2022-11-28T00:42:22.264Z,19.27
2022-11-28T00:45:11.177Z,19.45
2022-11-28T00:47:59.788Z,21.80
2022-11-28T00:50:48.480Z,18.13
2022-11-28T00:53:40.517Z,19.52
2022-11-28T00:56:31.030Z,17.83
2022-11-28T00:59:19.327Z,21.48
2022-11-28T01:02:07.698Z,19.80
2022-11-28T01:04:56.004Z,19.17
2022-11-28T01:07:44.368Z,17.65
2022-11-28T01:10:34.128Z,17.08
2022-11-28T01:13:22.399Z,20.33
2022-11-28T01:16:11.612Z,18.73
2022-11-28T01:19:00.080Z,18.95
2022-11-28T01:21:48.527Z,21.02
2022-11-28T01:24:36.865Z,18.23
2022-11-28T01:27:26.799Z,22.67
2022-11-28T01:30:15.382Z,17.17
2022-11-28T01:33:03.718Z,19.35
2022-11-28T01:35:56.296Z,22.45
2022-11-28T01:38:45.482Z,20.15
2022-11-28T01:41:33.951Z,16.65
2022-11-28T01:45:06.247Z,18.40
2022-11-28T01:47:56.293Z,19.58
2022-11-28T01:50:47.850Z,19.17
2022-11-28T01:53:39.291Z,18.50
2022-11-28T01:56:31.173Z,20.23
2022-11-28T01:59:21.300Z,18.10
2022-11-28T02:02:16.749Z,20.90
2022-11-28T02:05:05.897Z,19.40
2022-11-28T02:07:54.827Z,18.23
2022-11-28T02:10:55.731Z,20.33
2022-11-28T02:13:54.381Z,22.50
2022-11-28T02:16:56.663Z,20.58
2022-11-28T02:20:16.936Z,18.52
2022-11-28T02:23:09.639Z,17.02
2022-11-28T02:26:24.114Z,20.20
2022-11-28T02:29:49.890Z,15.90
2022-11-28T02:32:53.464Z,17.35
2022-11-28T02:35:54.554Z,15.30
2022-11-28T02:38:57.144Z,16.38
2022-11-28T02:41:48.813Z,17.60
2022-11-28T02:44:44.864Z,20.48
2022-11-28T02:47:36.726Z,14.88
2022-11-28T02:50:31.575Z,19.58
2022-11-28T02:53:23.427Z,21.42
2022-11-28T02:56:12.645Z,19.23
2022-11-28T02:59:01.025Z,16.27
2022-11-28T03:01:49.479Z,19.17
2022-11-28T03:04:46.617Z,16.25
2022-11-28T03:07:58.355Z,15.40
2022-11-28T03:10:52.547Z,20.52
2022-11-28T03:13:50.082Z,16.58
2022-11-28T03:16:47.208Z,21.52
2022-11-28T03:19:40.223Z,21.23
2022-11-28T03:22:34.075Z,17.23
2022-11-28T03:25:29.717Z,19.55
2022-11-28T03:28:25.696Z,19.75
2022-11-28T03:31:18.193Z,15.75
2022-11-28T03:34:09.727Z,16.45
2022-11-28T03:37:01.125Z,18.20
2022-11-28T03:39:55.520Z,19.10
2022-11-28T03:42:52.455Z,17.98
2022-11-28T03:45:45.294Z,20.38
2022-11-28T03:48:39.721Z,18.05
2022-11-28T03:51:32.953Z,19.73
2022-11-28T03:54:25.985Z,19.17
2022-11-28T03:57:20.333Z,19.25
2022-11-28T04:00:12.958Z,20.42
2022-11-28T04:03:09.722Z,21.20
2022-11-28T04:06:04.429Z,19.02
2022-11-28T04:09:01.722Z,18.25
2022-11-28T04:11:55.591Z,18.95
2022-11-28T04:14:50.229Z,18.92
2022-11-28T04:17:47.333Z,21.08
2022-11-28T04:20:42.557Z,20.80
2022-11-28T04:23:32.960Z,18.83
2022-11-28T04:26:26.739Z,18.13
2022-11-28T04:29:18.825Z,21.35
2022-11-28T04:32:09.138Z,20.95
2022-11-28T04:35:05.516Z,19.63
2022-11-28T04:37:55.726Z,19.50
2022-11-28T04:40:49.846Z,18.43
2022-11-28T04:43:43.168Z,22.08
2022-11-28T04:46:44.266Z,19.77
2022-11-28T04:49:33.081Z,19.77
2022-11-28T04:52:29.050Z,19.20
2022-11-28T04:55:29.505Z,18.63
2022-11-28T04:58:21.810Z,18.37
2022-11-28T05:01:15.638Z,24.17
2022-11-28T05:04:04.173Z,21.73
2022-11-28T05:07:01.505Z,23.88
2022-11-28T05:09:51.597Z,22.92
2022-11-28T05:12:40.225Z,19.75
2022-11-28T05:15:28.591Z,20.40
2022-11-28T05:18:16.938Z,22.90
2022-11-28T05:21:08.139Z,19.17
2022-11-28T05:23:56.493Z,20.63
2022-11-28T05:26:46.195Z,22.38
2022-11-28T05:29:34.613Z,20.80
2022-11-28T05:32:22.910Z,23.80
2022-11-28T05:35:11.424Z,20.05
2022-11-28T05:37:59.768Z,20.95
2022-11-28T05:40:48.170Z,19.83
2022-11-28T05:43:37.950Z,21.02
2022-11-28T05:46:27.085Z,21.40
2022-11-28T05:49:15.417Z,18.80
2022-11-28T05:52:03.799Z,21.02
2022-11-28T05:54:52.297Z,21.60
2022-11-28T05:57:40.639Z,20.98
2022-11-28T06:00:31.012Z,21.65
2022-11-28T06:03:19.325Z,17.70
2022-11-28T06:06:12.473Z,21.23
2022-11-28T06:09:01.255Z,19.05
2022-11-28T06:11:49.558Z,22.30
2022-11-28T06:14:38.611Z,23.38
2022-11-28T06:17:28.250Z,24.92
2022-11-28T06:20:16.664Z,23.95
2022-11-28T06:23:05.017Z,21.25
2022-11-28T06:25:53.339Z,24.70
2022-11-28T06:28:42.100Z,24.63
2022-11-28T06:31:31.376Z,25.67
2022-11-28T06:34:21.105Z,23.60
2022-11-28T06:37:09.446Z,25.48
2022-11-28T06:39:59.173Z,24.88
2022-11-28T06:42:50.419Z,26.95
2022-11-28T06:48:27.435Z,30.33
2022-11-28T06:51:18.502Z,26.60
2022-11-28T06:54:07.321Z,24.40
2022-11-28T06:56:55.860Z,27.88
2022-11-28T06:59:44.310Z,23.25
2022-11-28T07:02:34.186Z,23.40
2022-11-28T07:05:23.026Z,25.42
2022-11-28T07:08:12.760Z,24.88
2022-11-28T07:11:09.180Z,26.45
2022-11-28T07:13:58.424Z,24.30
2022-11-28T07:16:47.401Z,25.90
2022-11-28T07:19:35.949Z,27.65
2022-11-28T07:22:24.531Z,22.75
2022-11-28T07:25:14.846Z,27.02
2022-11-28T07:28:03.245Z,21.57
2022-11-28T07:30:58.890Z,20.60
2022-11-28T07:33:49.490Z,22.58
2022-11-28T07:36:38.402Z,23.42
2022-11-28T07:39:27.758Z,19.52
2022-11-28T07:42:17.568Z,22.65
2022-11-28T07:45:06.773Z,26.20
2022-11-28T07:47:55.112Z,26.55
2022-11-28T07:50:43.449Z,22.38
2022-11-28T07:53:31.727Z,20.48
2022-11-28T07:56:22.353Z,23.15
2022-11-28T07:59:12.280Z,19.15
2022-11-28T08:02:00.651Z,18.58
2022-11-28T08:04:52.827Z,23.48
2022-11-28T08:07:43.558Z,21.75
2022-11-28T08:10:32.025Z,22.00
2022-11-28T08:13:20.443Z,27.33
2022-11-28T08:16:14.115Z,19.65
2022-11-28T08:19:03.112Z,23.42
2022-11-28T08:21:51.436Z,22.08
2022-11-28T08:24:40.066Z,21.42
2022-11-28T08:27:28.659Z,18.90
2022-11-28T08:30:17.419Z,19.83
2022-11-28T08:33:07.199Z,19.17
2022-11-28T08:35:55.701Z,19.35
2022-11-28T08:39:02.926Z,20.35
2022-11-28T08:41:57.280Z,20.13
2022-11-28T08:44:45.723Z,21.60
2022-11-28T08:47:34.205Z,21.08
2022-11-28T08:50:23.863Z,22.50
2022-11-28T08:53:12.210Z,18.95
2022-11-28T08:56:00.672Z,19.30
2022-11-28T08:58:49.283Z,19.08
2022-11-28T09:01:37.758Z,19.40
2022-11-28T09:04:26.149Z,17.92
2022-11-28T09:07:15.953Z,24.52
2022-11-28T09:10:04.839Z,20.75
2022-11-28T09:12:53.189Z,16.95
2022-11-28T09:15:42.893Z,18.38
2022-11-28T09:18:31.837Z,19.15
2022-11-28T09:21:20.275Z,21.08
2022-11-28T09:24:11.673Z,18.75
2022-11-28T09:26:59.991Z,18.45
2022-11-28T09:29:48.328Z,20.48
2022-11-28T09:32:37.489Z,21.00
2022-11-28T09:35:25.858Z,21.58
2022-11-28T09:38:14.183Z,20.67
2022-11-28T09:41:23.361Z,19.23
2022-11-28T09:44:19.531Z,24.55
2022-11-28T09:47:15.514Z,17.95
2022-11-28T09:50:10.805Z,18.15
2022-11-28T09:53:03.762Z,20.45
2022-11-28T09:55:55.363Z,20.88
2022-11-28T09:58:49.776Z,24.05
2022-11-28T10:01:49.162Z,20.90
2022-11-28T10:04:43.237Z,20.17
2022-11-28T10:07:41.273Z,17.73
2022-11-28T10:10:42.100Z,22.23
2022-11-28T10:14:06.622Z,22.40
2022-11-28T10:17:03.605Z,20.17
2022-11-28T10:22:49.462Z,22.20
2022-11-28T10:25:42.380Z,18.65
2022-11-28T10:28:34.099Z,19.58
2022-11-28T10:31:31.758Z,19.00
2022-11-28T10:34:29.347Z,21.38
2022-11-28T10:37:22.860Z,19.75
2022-11-28T10:40:19.227Z,21.42
2022-11-28T10:43:16.726Z,20.52
2022-11-28T10:46:23.207Z,17.25
2022-11-28T10:49:27.658Z,25.33
2022-11-28T10:52:22.988Z,19.17
2022-11-28T10:55:26.093Z,19.80
2022-11-28T10:58:22.654Z,18.67
2022-11-28T11:01:11.636Z,17.85
2022-11-28T11:04:00.027Z,23.35
2022-11-28T11:07:11.249Z,19.17
2022-11-28T11:10:14.477Z,23.42
2022-11-28T11:13:14.327Z,15.27
2022-11-28T11:16:05.566Z,24.15
2022-11-28T11:18:55.518Z,19.45
2022-11-28T11:22:01.753Z,22.55
2022-11-28T11:25:07.064Z,22.00
2022-11-28T11:27:57.302Z,17.00
2022-11-28T11:30:47.203Z,14.50
2022-11-28T11:33:37.168Z,20.52
2022-11-28T11:36:28.750Z,19.25
2022-11-28T11:39:27.481Z,19.35
2022-11-28T11:42:21.666Z,18.73
2022-11-28T11:45:30.228Z,19.60
2022-11-28T11:48:35.169Z,21.10
2022-11-28T11:51:28.163Z,15.85
2022-11-28T11:54:18.501Z,19.88
2022-11-28T11:57:35.066Z,23.30
2022-11-28T12:00:24.076Z,18.90
2022-11-28T12:03:21.457Z,22.27
2022-11-28T12:06:15.597Z,19.23
2022-11-28T12:09:12.759Z,21.98
2022-11-28T12:12:09.085Z,19.08
2022-11-28T12:14:59.045Z,17.65
2022-11-28T12:18:01.522Z,20.67
2022-11-28T12:21:05.200Z,19.67
2022-11-28T12:24:10.460Z,21.48
2022-11-28T12:27:06.823Z,18.77
2022-11-28T12:30:08.050Z,21.77
2022-11-28T12:36:07.012Z,19.45
2022-11-28T12:39:01.291Z,19.02
2022-11-28T12:42:10.333Z,17.80
2022-11-28T12:45:19.906Z,16.17
2022-11-28T12:48:27.746Z,21.30
2022-11-28T12:51:27.358Z,22.05
2022-11-28T12:54:41.807Z,19.85
2022-11-28T12:57:38.475Z,20.15
2022-11-28T13:00:29.011Z,23.02
2022-11-28T13:03:30.381Z,20.33
2022-11-28T13:06:30.060Z,20.60
2022-11-28T13:09:30.207Z,20.30
2022-11-28T13:12:25.458Z,20.23
2022-11-28T13:15:22.112Z,25.05
2022-11-28T13:18:25.053Z,20.30
2022-11-28T13:21:33.108Z,19.83
2022-11-28T13:24:28.004Z,20.20
2022-11-28T13:27:32.592Z,20.98
2022-11-28T13:30:23.380Z,19.65
2022-11-28T13:33:36.037Z,18.00
2022-11-28T13:39:47.465Z,18.98
2022-11-28T13:43:03.555Z,20.30
2022-11-28T13:45:52.733Z,22.05
2022-11-28T13:49:14.430Z,20.40
2022-11-28T13:52:35.275Z,22.65
2022-11-28T13:55:46.537Z,20.23
2022-11-28T13:58:42.827Z,20.67
2022-11-28T14:01:43.103Z,21.95
2022-11-28T14:04:33.972Z,19.13
2022-11-28T14:07:28.315Z,20.02
2022-11-28T14:10:31.076Z,18.63
2022-11-28T14:13:54.402Z,19.35
2022-11-28T14:16:55.182Z,25.95
2022-11-28T14:19:58.641Z,18.08
2022-11-28T14:23:01.163Z,17.17
2022-11-28T14:25:52.665Z,20.98
2022-11-28T14:28:45.394Z,21.90
2022-11-28T14:31:37.994Z,19.35
2022-11-28T14:34:42.713Z,20.67
2022-11-28T14:37:53.035Z,25.63
2022-11-28T14:41:06.277Z,20.50
2022-11-28T14:43:54.739Z,19.10
2022-11-28T14:47:07.421Z,19.33
2022-11-28T14:50:29.236Z,18.08
2022-11-28T14:53:46.493Z,22.00
2022-11-28T14:56:35.729Z,21.60
2022-11-28T14:59:28.035Z,21.42
2022-11-28T15:02:43.028Z,20.98
2022-11-28T15:05:38.889Z,22.45
2022-11-28T15:08:38.013Z,21.48
2022-11-28T15:11:42.640Z,19.90
2022-11-28T15:14:32.869Z,21.40
2022-11-28T15:17:24.997Z,22.17
2022-11-28T15:20:21.933Z,21.52
2022-11-28T15:23:23.774Z,20.10
2022-11-28T15:26:20.583Z,20.58
2022-11-28T15:29:11.406Z,25.83
2022-11-28T15:32:01.150Z,23.13
2022-11-28T15:34:55.063Z,20.33
2022-11-28T15:37:50.412Z,22.98
2022-11-28T15:40:38.829Z,22.90
2022-11-28T15:43:27.569Z,22.33
2022-11-28T15:46:20.231Z,20.73
2022-11-28T15:49:29.183Z,21.83
2022-11-28T15:52:19.123Z,22.77
2022-11-28T15:55:16.666Z,21.80
2022-11-28T15:58:13.132Z,19.13
2022-11-28T16:01:05.517Z,25.77
2022-11-28T16:03:58.368Z,24.00
2022-11-28T16:06:53.312Z,20.00
2022-11-28T16:09:54.019Z,22.80
2022-11-28T16:12:42.524Z,22.77
2022-11-28T16:15:31.650Z,24.08
2022-11-28T16:18:20.680Z,22.85
2022-11-28T16:21:13.589Z,23.08
2022-11-28T16:24:02.194Z,24.77
2022-11-28T16:26:56.017Z,24.33
2022-11-28T16:29:47.424Z,20.73
2022-11-28T16:32:39.604Z,23.92
2022-11-28T16:35:29.885Z,22.02
2022-11-28T16:38:23.494Z,24.73
2022-11-28T16:41:18.055Z,20.10
2022-11-28T16:44:08.198Z,21.17
2022-11-28T16:46:58.458Z,23.45
2022-11-28T16:50:16.059Z,22.90
2022-11-28T16:53:05.379Z,22.10
2022-11-28T16:55:55.061Z,22.65
2022-11-28T16:58:43.404Z,21.88
2022-11-28T17:01:32.074Z,24.05
2022-11-28T17:04:22.590Z,23.50
2022-11-28T17:07:13.813Z,21.95
2022-11-28T17:10:02.342Z,24.98
2022-11-28T17:12:52.193Z,22.75
2022-11-28T17:15:40.565Z,21.10
2022-11-28T17:18:28.881Z,24.17
2022-11-28T17:21:19.852Z,21.67
2022-11-28T17:24:15.895Z,22.35
2022-11-28T17:27:07.630Z,24.40
2022-11-28T17:29:57.307Z,21.67
2022-11-28T17:32:47.117Z,22.05
2022-11-28T17:35:41.127Z,23.17
2022-11-28T17:38:32.016Z,21.83
2022-11-28T17:41:23.280Z,21.65
2022-11-28T17:44:17.436Z,20.77
2022-11-28T17:47:07.392Z,21.63
2022-11-28T17:49:55.829Z,21.98
2022-11-28T17:52:44.448Z,22.90
2022-11-28T17:55:32.796Z,21.40
2022-11-28T17:58:24.354Z,21.60
2022-11-28T18:01:15.890Z,20.48
2022-11-28T18:04:05.784Z,22.60
2022-11-28T18:06:54.219Z,20.17
2022-11-28T18:09:43.007Z,21.48
2022-11-28T18:12:31.803Z,22.27
2022-11-28T18:15:20.112Z,21.40
2022-11-28T18:18:09.977Z,27.33
2022-11-28T18:21:00.443Z,21.75
2022-11-28T18:23:50.601Z,25.17
2022-11-28T18:26:38.956Z,21.48
2022-11-28T18:29:27.358Z,24.05
2022-11-28T18:32:15.703Z,21.92
2022-11-28T18:35:04.086Z,23.92
2022-11-28T18:37:54.666Z,22.38
2022-11-28T18:40:42.981Z,24.20
2022-11-28T18:43:31.319Z,23.15
2022-11-28T18:46:20.063Z,20.05
2022-11-28T18:49:08.984Z,22.65
2022-11-28T18:51:57.716Z,23.33
2022-11-28T18:54:47.468Z,22.80
2022-11-28T18:57:36.793Z,21.92
2022-11-28T19:00:25.533Z,25.35
2022-11-28T19:03:13.939Z,23.52
2022-11-28T19:06:04.929Z,23.05
2022-11-28T19:08:55.172Z,23.95
2022-11-28T19:11:45.426Z,23.37
2022-11-28T19:14:33.765Z,26.27
2022-11-28T19:17:22.081Z,26.42
2022-11-28T19:20:12.092Z,26.67
2022-11-28T19:23:00.438Z,24.85
2022-11-28T19:25:49.199Z,24.90
2022-11-28T19:28:40.406Z,26.00
2022-11-28T19:31:30.739Z,24.88
2022-11-28T19:34:19.848Z,31.67
2022-11-28T19:37:08.272Z,28.88
2022-11-28T19:40:02.193Z,25.33
2022-11-28T19:42:51.077Z,25.98
2022-11-28T19:45:40.787Z,24.30
2022-11-28T19:48:30.884Z,27.08
2022-11-28T19:51:20.192Z,26.13
2022-11-28T19:54:08.581Z,27.10
2022-11-28T19:56:57.030Z,26.63
2022-11-28T19:59:45.644Z,32.00
2022-11-28T20:02:35.676Z,27.48
2022-11-28T20:05:23.997Z,27.60
2022-11-28T20:08:12.370Z,32.03
2022-11-28T20:11:08.472Z,34.67
2022-11-28T20:13:58.155Z,33.58
2022-11-28T20:16:47.713Z,31.52
2022-11-28T20:19:37.530Z,31.33
2022-11-28T20:22:25.820Z,24.55
2022-11-28T20:25:17.868Z,34.30
2022-11-28T20:28:09.082Z,28.52
2022-11-28T20:30:57.430Z,26.15
2022-11-28T20:33:46.017Z,30.77
2022-11-28T20:36:36.475Z,29.27
2022-11-28T20:39:25.057Z,28.02
2022-11-28T20:42:13.393Z,28.23
2022-11-28T20:45:01.708Z,27.73
2022-11-28T20:47:50.252Z,26.92
2022-11-28T20:50:38.581Z,32.17
2022-11-28T20:53:28.601Z,34.10
2022-11-28T20:56:19.214Z,32.05
2022-11-28T20:59:08.524Z,31.73
2022-11-28T21:01:57.137Z,32.97
2022-11-28T21:04:45.632Z,35.60
2022-11-28T21:07:34.223Z,27.13
2022-11-28T21:10:24.012Z,27.73
2022-11-28T21:13:12.638Z,28.38
2022-11-28T21:16:05.798Z,27.05
2022-11-28T21:18:54.230Z,29.42
2022-11-28T21:21:43.329Z,27.23
2022-11-28T21:24:31.661Z,25.83
2022-11-28T21:27:21.324Z,29.38
2022-11-28T21:30:10.417Z,28.73
2022-11-28T21:32:58.859Z,29.02
2022-11-28T21:35:47.425Z,32.42
2022-11-28T21:38:36.602Z,28.90
2022-11-28T21:41:27.887Z,29.90
2022-11-28T21:44:17.831Z,29.23
2022-11-28T21:47:08.114Z,29.38
2022-11-28T21:49:56.441Z,26.15
2022-11-28T21:52:44.895Z,29.45
2022-11-28T21:55:33.377Z,30.40
2022-11-28T21:58:26.456Z,29.88
2022-11-28T22:01:17.092Z,31.08
2022-11-28T22:04:06.073Z,30.38
2022-11-28T22:06:54.421Z,28.75
2022-11-28T22:09:42.750Z,28.45
2022-11-28T22:12:31.150Z,32.47
2022-11-28T22:15:19.739Z,31.50
2022-11-28T22:18:09.511Z,29.40
2022-11-28T22:21:06.586Z,35.33
2022-11-28T22:24:01.471Z,30.05
2022-11-28T22:26:49.970Z,30.33
2022-11-28T22:29:38.604Z,30.02
2022-11-28T22:32:26.989Z,33.03
2022-11-28T22:35:16.999Z,30.23
2022-11-28T22:38:05.350Z,33.63
2022-11-28T22:40:53.688Z,31.65
2022-11-28T22:43:42.291Z,30.10
2022-11-28T22:46:31.437Z,33.80
2022-11-28T22:49:19.794Z,35.22
2022-11-28T22:52:09.663Z,33.03
2022-11-28T22:54:58.067Z,32.45
2022-11-28T22:57:46.451Z,35.13
2022-11-28T23:00:34.773Z,35.13
2022-11-28T23:03:23.226Z,31.02
2022-11-28T23:06:15.389Z,37.25
2022-11-28T23:09:07.083Z,34.25
2022-11-28T23:11:55.798Z,35.28
2022-11-28T23:14:44.319Z,35.28
2022-11-28T23:17:34.170Z,32.47
2022-11-28T23:20:22.531Z,33.55
2022-11-28T23:23:10.846Z,34.38
2022-11-28T23:26:05.358Z,34.25
2022-11-28T23:28:54.339Z,33.45
2022-11-28T23:31:44.171Z,32.83
2022-11-28T23:34:32.487Z,33.72
2022-11-28T23:37:20.859Z,35.08
2022-11-28T23:40:10.229Z,35.47
2022-11-28T23:42:59.929Z,33.97
2022-11-28T23:45:48.281Z,34.13
2022-11-28T23:48:36.962Z,34.45
2022-11-28T23:51:27.019Z,33.97
2022-11-28T23:54:15.493Z,32.53
2022-11-28T23:57:03.978Z,33.03
2022-11-28T23:59:53.695Z,33.25
